createdAt,value
2022-10-12T00:01:29.564Z,16.58
2022-10-12T00:03:56.968Z,20.60
2022-10-12T00:06:26.012Z,20.38
2022-10-12T00:08:54.342Z,24.48
2022-10-12T00:11:22.983Z,17.48
2022-10-12T00:13:50.679Z,20.35
2022-10-12T00:16:19.400Z,17.17
2022-10-12T00:18:50.153Z,19.20
2022-10-12T00:21:20.277Z,21.50
2022-10-12T00:23:49.478Z,20.15
2022-10-12T00:26:17.922Z,18.88
2022-10-12T00:28:45.471Z,16.13
2022-10-12T00:31:14.119Z,18.75
2022-10-12T00:33:41.652Z,19.00
2022-10-12T00:36:12.452Z,25.60
2022-10-12T00:38:39.796Z,18.33
2022-10-12T00:41:08.878Z,19.67
2022-10-12T00:43:38.886Z,18.58
2022-10-12T00:46:08.125Z,20.05
2022-10-12T00:48:35.536Z,20.70
2022-10-12T00:51:03.804Z,17.52
2022-10-12T00:53:33.548Z,27.05
2022-10-12T00:56:02.417Z,22.52
2022-10-12T00:58:32.107Z,20.45
2022-10-12T01:01:01.368Z,17.00
2022-10-12T01:03:29.197Z,15.75
2022-10-12T01:05:56.779Z,16.05
2022-10-12T01:08:24.269Z,18.65
2022-10-12T01:10:51.640Z,26.48
2022-10-12T01:13:19.399Z,21.25
2022-10-12T01:15:50.500Z,16.90
2022-10-12T01:18:20.533Z,21.65
2022-10-12T01:20:57.527Z,16.23
2022-10-12T01:23:45.787Z,19.10
2022-10-12T01:26:24.081Z,16.58
2022-10-12T01:28:56.569Z,23.42
2022-10-12T01:31:32.365Z,24.92
2022-10-12T01:34:02.961Z,19.80
2022-10-12T01:36:33.338Z,16.55
2022-10-12T01:39:05.099Z,22.85
2022-10-12T01:41:35.380Z,18.90
2022-10-12T01:44:02.785Z,19.95
2022-10-12T01:46:51.049Z,16.73
2022-10-12T01:49:21.677Z,14.77
2022-10-12T01:51:55.629Z,26.65
2022-10-12T01:54:27.609Z,24.10
2022-10-12T01:56:58.394Z,19.52
2022-10-12T01:59:32.164Z,19.73
2022-10-12T02:02:04.273Z,20.00
2022-10-12T02:04:37.490Z,17.52
2022-10-12T02:07:05.896Z,23.23
2022-10-12T02:09:35.182Z,22.63
2022-10-12T02:12:04.925Z,15.48
2022-10-12T02:14:33.464Z,19.35
2022-10-12T02:17:02.286Z,15.82
2022-10-12T02:19:31.348Z,22.25
2022-10-12T02:22:01.662Z,20.25
2022-10-12T02:24:29.718Z,19.63
2022-10-12T02:26:57.698Z,25.45
2022-10-12T02:31:54.254Z,21.25
2022-10-12T02:34:24.284Z,17.73
2022-10-12T02:36:54.558Z,22.13
2022-10-12T02:39:25.781Z,20.45
2022-10-12T02:41:56.073Z,17.48
2022-10-12T02:44:24.889Z,20.55
2022-10-12T02:46:53.320Z,22.35
2022-10-12T02:49:21.413Z,17.65
2022-10-12T02:51:49.084Z,15.52
2022-10-12T02:54:16.738Z,17.25
2022-10-12T02:56:46.128Z,18.20
2022-10-12T02:59:13.777Z,25.23
2022-10-12T03:01:41.503Z,16.17
2022-10-12T03:04:08.990Z,19.58
2022-10-12T03:06:36.774Z,22.83
2022-10-12T03:09:05.069Z,19.55
2022-10-12T03:11:32.496Z,24.60
2022-10-12T03:14:01.231Z,27.58
2022-10-12T03:16:28.643Z,16.48
2022-10-12T03:18:56.057Z,16.48
2022-10-12T03:21:23.421Z,18.23
2022-10-12T03:23:50.910Z,14.35
2022-10-12T03:26:18.258Z,19.38
2022-10-12T03:28:45.690Z,15.40
2022-10-12T03:31:14.549Z,16.10
2022-10-12T03:33:41.981Z,14.75
2022-10-12T03:36:10.584Z,21.60
2022-10-12T03:38:37.955Z,20.75
2022-10-12T03:41:06.907Z,20.92
2022-10-12T03:43:34.848Z,18.38
2022-10-12T03:48:30.775Z,14.63
2022-10-12T03:50:58.354Z,22.63
2022-10-12T03:53:25.815Z,17.05
2022-10-12T03:55:53.226Z,16.65
2022-10-12T03:58:20.605Z,25.70
2022-10-12T04:00:48.013Z,16.00
2022-10-12T04:03:15.406Z,23.45
2022-10-12T04:05:44.112Z,22.58
2022-10-12T04:08:11.468Z,21.20
2022-10-12T04:10:38.835Z,19.17
2022-10-12T04:13:06.207Z,21.40
2022-10-12T04:15:33.624Z,20.23
2022-10-12T04:18:01.007Z,15.20
2022-10-12T04:20:28.420Z,17.85
2022-10-12T04:22:57.123Z,18.23
2022-10-12T04:25:29.297Z,20.52
2022-10-12T04:27:57.904Z,22.83
2022-10-12T04:30:25.304Z,31.52
2022-10-12T04:32:53.059Z,25.15
2022-10-12T04:35:20.477Z,19.13
2022-10-12T04:37:47.859Z,20.35
2022-10-12T04:40:16.732Z,24.50
2022-10-12T04:42:44.192Z,20.25
2022-10-12T04:45:11.727Z,21.38
2022-10-12T04:47:39.586Z,20.38
2022-10-12T04:50:07.829Z,22.73
2022-10-12T04:55:02.518Z,15.23
2022-10-12T04:57:31.412Z,19.00
2022-10-12T04:59:58.784Z,30.80
2022-10-12T05:02:26.292Z,21.73
2022-10-12T05:04:53.677Z,19.90
2022-10-12T05:07:21.027Z,17.05
2022-10-12T05:09:48.374Z,24.65
2022-10-12T05:12:15.799Z,22.40
2022-10-12T05:14:45.548Z,31.60
2022-10-12T05:17:12.996Z,17.23
2022-10-12T05:19:40.352Z,21.50
2022-10-12T05:22:07.784Z,20.30
2022-10-12T05:24:35.290Z,17.15
2022-10-12T05:27:03.025Z,30.98
2022-10-12T05:29:30.375Z,22.35
2022-10-12T05:31:59.040Z,18.85
2022-10-12T05:34:26.407Z,18.48
2022-10-12T05:36:53.795Z,24.75
2022-10-12T05:39:21.186Z,17.58
2022-10-12T05:41:48.575Z,19.73
2022-10-12T05:44:15.961Z,23.30
2022-10-12T05:46:43.473Z,19.75
2022-10-12T05:49:12.207Z,28.23
2022-10-12T05:51:40.439Z,19.85
2022-10-12T05:54:08.078Z,27.35
2022-10-12T05:56:35.465Z,22.30
2022-10-12T05:59:03.622Z,33.33
2022-10-12T06:01:31.246Z,21.70
2022-10-12T06:03:58.841Z,20.15
2022-10-12T06:06:27.525Z,28.63
2022-10-12T06:08:54.914Z,22.58
2022-10-12T06:11:22.350Z,18.00
2022-10-12T06:13:49.714Z,19.85
2022-10-12T06:16:17.107Z,20.20
2022-10-12T06:18:44.492Z,27.00
2022-10-12T06:21:32.509Z,30.08
2022-10-12T06:24:00.583Z,19.50
2022-10-12T06:26:27.960Z,20.50
2022-10-12T06:28:55.432Z,18.25
2022-10-12T06:31:22.876Z,18.85
2022-10-12T06:33:50.895Z,25.17
2022-10-12T06:36:18.264Z,27.73
2022-10-12T06:38:45.636Z,27.17
2022-10-12T06:41:14.347Z,27.25
2022-10-12T06:43:41.752Z,23.60
2022-10-12T06:46:09.226Z,24.90
2022-10-12T06:48:36.643Z,22.73
2022-10-12T06:51:04.168Z,25.50
2022-10-12T06:53:32.887Z,29.52
2022-10-12T06:56:00.289Z,31.80
2022-10-12T06:58:28.984Z,28.42
2022-10-12T07:00:56.344Z,26.95
2022-10-12T07:03:23.692Z,25.90
2022-10-12T07:05:51.068Z,25.50
2022-10-12T07:08:18.773Z,27.77
2022-10-12T07:10:46.165Z,32.97
2022-10-12T07:13:13.499Z,24.80
2022-10-12T07:15:42.221Z,27.45
2022-10-12T07:18:09.614Z,34.83
2022-10-12T07:20:39.907Z,21.55
2022-10-12T07:23:07.281Z,25.35
2022-10-12T07:25:34.683Z,40.13
2022-10-12T07:28:05.187Z,28.60
2022-10-12T07:30:32.960Z,56.20
2022-10-12T07:33:01.704Z,41.30
2022-10-12T07:35:29.086Z,32.95
2022-10-12T07:37:56.481Z,32.78
2022-10-12T07:40:26.135Z,35.67
2022-10-12T07:43:14.826Z,36.53
2022-10-12T07:45:41.203Z,37.55
2022-10-12T07:48:09.901Z,50.13
2022-10-12T07:50:37.512Z,41.25
2022-10-12T07:53:04.910Z,36.17
2022-10-12T07:55:32.660Z,37.92
2022-10-12T07:58:00.012Z,32.70
2022-10-12T08:00:27.948Z,37.67
2022-10-12T08:05:23.920Z,26.20
2022-10-12T08:07:52.371Z,28.98
2022-10-12T08:10:20.112Z,37.95
2022-10-12T08:12:51.904Z,28.23
2022-10-12T08:15:19.718Z,26.52
2022-10-12T08:17:47.088Z,36.50
2022-10-12T08:20:14.490Z,25.25
2022-10-12T08:22:43.238Z,36.03
2022-10-12T08:25:10.627Z,21.02
2022-10-12T08:27:38.553Z,22.77
2022-10-12T08:30:06.460Z,31.58
2022-10-12T08:32:33.927Z,24.27
2022-10-12T08:35:02.044Z,24.30
2022-10-12T08:37:30.075Z,30.02
2022-10-12T08:40:03.052Z,22.67
2022-10-12T08:42:37.271Z,26.20
2022-10-12T08:45:10.603Z,43.17
2022-10-12T08:47:41.245Z,24.45
2022-10-12T08:50:15.031Z,23.20
2022-10-12T08:52:44.421Z,23.90
2022-10-12T08:55:21.660Z,17.45
2022-10-12T08:57:50.035Z,21.00
2022-10-12T09:00:18.226Z,24.23
2022-10-12T09:05:16.233Z,15.23
2022-10-12T09:07:47.136Z,19.02
2022-10-12T09:10:23.688Z,29.52
2022-10-12T09:12:55.414Z,22.33
2022-10-12T09:15:24.043Z,19.20
2022-10-12T09:17:53.172Z,25.60
2022-10-12T09:20:21.569Z,25.15
2022-10-12T09:22:50.468Z,24.48
2022-10-12T09:25:18.785Z,23.98
2022-10-12T09:27:47.936Z,19.90
2022-10-12T09:30:16.227Z,17.20
2022-10-12T09:33:04.728Z,17.23
2022-10-12T09:35:32.219Z,21.92
2022-10-12T09:37:59.636Z,27.05
2022-10-12T09:40:30.895Z,16.45
2022-10-12T09:43:00.460Z,30.08
2022-10-12T09:45:29.858Z,26.80
2022-10-12T09:48:10.418Z,30.13
2022-10-12T09:50:41.669Z,21.92
2022-10-12T09:53:19.657Z,19.40
2022-10-12T09:55:52.719Z,19.33
2022-10-12T09:58:22.354Z,19.98
2022-10-12T10:01:04.628Z,23.83
2022-10-12T10:03:32.080Z,25.70
2022-10-12T10:06:03.228Z,31.50
2022-10-12T10:08:39.823Z,19.52
2022-10-12T10:11:14.283Z,19.60
2022-10-12T10:13:47.177Z,22.75
2022-10-12T10:16:14.641Z,18.00
2022-10-12T10:18:43.127Z,13.32
2022-10-12T10:21:12.168Z,21.35
2022-10-12T10:23:43.323Z,15.50
2022-10-12T10:26:13.093Z,14.07
2022-10-12T10:28:41.583Z,16.20
2022-10-12T10:31:21.564Z,13.20
2022-10-12T10:34:04.471Z,16.40
2022-10-12T10:36:32.598Z,17.45
2022-10-12T10:39:02.103Z,15.35
2022-10-12T10:41:32.076Z,14.32
2022-10-12T10:43:59.541Z,15.18
2022-10-12T10:46:30.926Z,20.13
2022-10-12T10:49:01.948Z,15.18
2022-10-12T10:51:47.497Z,16.60
2022-10-12T10:54:15.595Z,13.52
2022-10-12T10:56:44.775Z,17.35
2022-10-12T10:59:17.732Z,20.83
2022-10-12T11:01:52.247Z,12.25
2022-10-12T11:04:22.196Z,16.73
2022-10-12T11:06:51.350Z,13.02
2022-10-12T11:09:21.213Z,10.85
2022-10-12T11:11:52.196Z,12.18
2022-10-12T11:14:21.753Z,8.65
2022-10-12T11:16:53.457Z,15.88
2022-10-12T11:19:24.059Z,8.20
2022-10-12T11:21:53.666Z,12.85
2022-10-12T11:24:22.971Z,14.48
2022-10-12T11:26:52.203Z,15.27
2022-10-12T11:29:19.665Z,11.90
2022-10-12T11:31:53.487Z,11.10
2022-10-12T11:34:23.786Z,14.50
2022-10-12T11:37:14.800Z,12.55
2022-10-12T11:39:43.592Z,10.60
2022-10-12T11:42:21.802Z,11.23
2022-10-12T11:44:50.831Z,10.63
2022-10-12T11:47:23.414Z,13.32
2022-10-12T11:49:56.425Z,18.42
2022-10-12T11:52:28.711Z,14.15
2022-10-12T11:55:01.095Z,9.98
2022-10-12T11:57:29.515Z,11.55
2022-10-12T11:59:59.815Z,12.90
2022-10-12T12:02:28.452Z,9.20
2022-10-12T12:04:57.448Z,15.27
2022-10-12T12:07:41.963Z,12.80
2022-10-12T12:10:28.985Z,8.38
2022-10-12T12:15:23.710Z,12.55
2022-10-12T12:20:33.235Z,14.35
2022-10-12T12:23:01.992Z,14.77
2022-10-12T12:25:33.601Z,17.25
2022-10-12T12:28:06.669Z,9.43
2022-10-12T12:30:35.856Z,12.27
2022-10-12T12:33:04.338Z,14.48
2022-10-12T12:35:33.796Z,12.98
2022-10-12T12:38:04.512Z,11.75
2022-10-12T12:40:32.029Z,10.07
2022-10-12T12:43:17.929Z,8.00
2022-10-12T12:45:54.136Z,8.18
2022-10-12T12:48:36.391Z,6.63
2022-10-12T12:51:04.185Z,12.82
2022-10-12T12:53:32.922Z,9.77
2022-10-12T12:56:03.478Z,12.02
2022-10-12T12:58:37.836Z,10.77
2022-10-12T13:01:15.793Z,10.10
2022-10-12T13:03:53.161Z,22.13
2022-10-12T13:06:31.228Z,7.57
2022-10-12T13:09:22.829Z,9.48
2022-10-12T13:11:59.588Z,7.60
2022-10-12T13:14:34.879Z,15.70
2022-10-12T13:17:31.689Z,13.85
2022-10-12T13:19:57.097Z,12.43
2022-10-12T13:29:50.082Z,10.15
2022-10-12T13:32:20.924Z,18.48
2022-10-12T13:34:50.286Z,16.40
2022-10-12T13:37:18.041Z,13.48
2022-10-12T13:39:47.031Z,7.03
2022-10-12T13:42:16.121Z,19.67
2022-10-12T13:44:44.804Z,8.45
2022-10-12T13:47:24.165Z,12.35
2022-10-12T13:49:51.795Z,11.35
2022-10-12T13:52:21.696Z,17.25
2022-10-12T13:54:49.816Z,9.45
2022-10-12T13:57:20.019Z,8.93
2022-10-12T13:59:54.636Z,9.73
2022-10-12T14:02:25.060Z,7.10
2022-10-12T14:04:54.045Z,10.85
2022-10-12T14:07:23.070Z,8.43
2022-10-12T14:09:53.648Z,11.85
2022-10-12T14:12:25.290Z,9.48
2022-10-12T14:14:53.442Z,10.68
2022-10-12T14:19:51.401Z,15.02
2022-10-12T14:22:23.401Z,14.30
2022-10-12T14:24:51.358Z,12.90
2022-10-12T14:27:23.426Z,17.73
2022-10-12T14:29:51.112Z,11.13
2022-10-12T14:34:46.493Z,9.90
2022-10-12T14:37:27.173Z,16.05
2022-10-12T14:40:00.364Z,13.73
2022-10-12T14:42:28.839Z,10.73
2022-10-12T14:44:56.268Z,13.43
2022-10-12T14:47:24.628Z,9.60
2022-10-12T14:49:52.609Z,14.55
2022-10-12T14:52:21.350Z,10.70
2022-10-12T14:54:53.310Z,10.20
2022-10-12T14:57:20.811Z,13.30
2022-10-12T14:59:48.667Z,12.30
2022-10-12T15:04:43.264Z,7.22
2022-10-12T15:07:14.402Z,12.45
2022-10-12T15:09:41.843Z,10.43
2022-10-12T15:12:11.588Z,11.43
2022-10-12T15:14:38.961Z,14.82
2022-10-12T15:17:06.342Z,16.15
2022-10-12T15:19:33.829Z,15.70
2022-10-12T15:22:01.251Z,18.90
2022-10-12T15:24:28.594Z,12.05
2022-10-12T15:26:56.003Z,15.50
2022-10-12T15:29:24.696Z,9.95
2022-10-12T15:31:52.866Z,12.40
2022-10-12T15:34:20.266Z,13.23
2022-10-12T15:36:47.696Z,13.57
2022-10-12T15:39:15.093Z,16.95
2022-10-12T15:41:42.454Z,15.27
2022-10-12T15:44:10.932Z,13.13
2022-10-12T15:46:39.891Z,13.82
2022-10-12T15:49:07.356Z,14.15
2022-10-12T15:51:36.976Z,15.75
2022-10-12T15:54:04.381Z,11.10
2022-10-12T15:56:31.774Z,14.35
2022-10-12T15:58:59.361Z,14.63
2022-10-12T16:01:26.734Z,16.80
2022-10-12T16:03:56.077Z,15.30
2022-10-12T16:06:23.697Z,11.95
2022-10-12T16:08:51.112Z,17.52
2022-10-12T16:11:19.280Z,15.90
2022-10-12T16:13:53.847Z,9.70
2022-10-12T16:16:23.794Z,14.75
2022-10-12T16:18:51.835Z,13.35
2022-10-12T16:21:20.666Z,12.38
2022-10-12T16:23:48.103Z,16.52
2022-10-12T16:26:16.167Z,11.20
2022-10-12T16:28:43.649Z,19.73
2022-10-12T16:31:11.895Z,11.45
2022-10-12T16:33:41.409Z,12.18
2022-10-12T16:36:10.970Z,18.83
2022-10-12T16:38:40.122Z,14.52
2022-10-12T16:41:11.925Z,23.05
2022-10-12T16:43:40.258Z,16.60
2022-10-12T16:46:08.604Z,12.43
2022-10-12T16:48:37.325Z,15.38
2022-10-12T16:51:07.667Z,36.25
2022-10-12T16:53:35.423Z,33.03
2022-10-12T16:56:04.748Z,19.10
2022-10-12T16:58:32.125Z,11.10
2022-10-12T17:00:59.622Z,18.33
2022-10-12T17:03:27.335Z,11.25
2022-10-12T17:05:58.520Z,19.30
2022-10-12T17:08:25.956Z,21.70
2022-10-12T17:10:53.429Z,13.80
2022-10-12T17:13:22.142Z,18.52
2022-10-12T17:15:49.494Z,12.73
2022-10-12T17:18:16.989Z,18.00
2022-10-12T17:20:45.037Z,14.50
2022-10-12T17:23:13.812Z,11.23
2022-10-12T17:25:41.184Z,12.57
2022-10-12T17:28:08.549Z,18.88
2022-10-12T17:30:38.777Z,18.15
2022-10-12T17:33:06.193Z,40.40
2022-10-12T17:35:33.596Z,26.08
2022-10-12T17:38:00.938Z,18.60
2022-10-12T17:40:28.289Z,21.73
2022-10-12T17:42:55.905Z,18.95
2022-10-12T17:45:23.275Z,17.02
2022-10-12T17:47:53.172Z,19.95
2022-10-12T17:50:20.540Z,19.58
2022-10-12T17:52:47.920Z,15.73
2022-10-12T17:55:36.028Z,23.85
2022-10-12T17:58:02.661Z,22.73
2022-10-12T18:00:30.035Z,18.50
2022-10-12T18:02:58.737Z,24.75
2022-10-12T18:05:26.230Z,19.92
2022-10-12T18:07:53.656Z,23.15
2022-10-12T18:10:23.498Z,22.70
2022-10-12T18:12:53.516Z,23.02
2022-10-12T18:15:22.963Z,22.48
2022-10-12T18:17:50.939Z,24.80
2022-10-12T18:22:47.468Z,21.50
2022-10-12T18:25:15.474Z,24.80
2022-10-12T18:30:10.380Z,27.63
2022-10-12T18:32:37.745Z,29.23
2022-10-12T18:35:05.385Z,28.23
2022-10-12T18:37:33.024Z,43.65
2022-10-12T18:40:01.784Z,27.50
2022-10-12T18:42:29.158Z,33.08
2022-10-12T18:44:56.742Z,37.90
2022-10-12T18:47:24.598Z,39.63
2022-10-12T18:52:20.735Z,30.67
2022-10-12T18:54:50.215Z,32.28
2022-10-12T18:57:18.932Z,31.98
2022-10-12T18:59:46.281Z,32.25
2022-10-12T19:02:17.218Z,39.75
2022-10-12T19:04:44.806Z,32.35
2022-10-12T19:07:12.248Z,33.67
2022-10-12T19:09:39.679Z,33.67
2022-10-12T19:12:07.112Z,35.88
2022-10-12T19:14:35.829Z,33.90
2022-10-12T19:17:03.226Z,30.85
2022-10-12T19:19:30.596Z,39.38
2022-10-12T19:21:57.931Z,40.80
2022-10-12T19:24:25.310Z,44.78
2022-10-12T19:26:52.678Z,55.80
2022-10-12T19:29:20.143Z,52.30
2022-10-12T19:31:49.419Z,48.78
2022-10-12T19:34:18.008Z,43.95
2022-10-12T19:36:45.796Z,46.00
2022-10-12T19:39:14.208Z,41.05
2022-10-12T19:41:41.861Z,38.65
2022-10-12T19:44:09.272Z,44.13
2022-10-12T19:46:36.662Z,44.00
2022-10-12T19:49:05.365Z,49.08
2022-10-12T19:51:33.013Z,46.92
2022-10-12T19:54:01.530Z,43.15
2022-10-12T19:56:29.393Z,36.72
2022-10-12T20:01:25.870Z,49.17
2022-10-12T20:03:53.245Z,42.70
2022-10-12T20:06:22.765Z,43.58
2022-10-12T20:08:52.055Z,41.38
2022-10-12T20:11:23.795Z,28.65
2022-10-12T20:13:52.213Z,34.58
2022-10-12T20:16:19.996Z,30.92
2022-10-12T20:18:47.685Z,39.75
2022-10-12T20:21:15.900Z,37.42
2022-10-12T20:23:44.637Z,38.78
2022-10-12T20:26:14.556Z,34.80
2022-10-12T20:28:42.087Z,37.90
2022-10-12T20:31:09.870Z,31.52
2022-10-12T20:33:38.001Z,28.13
2022-10-12T20:36:08.207Z,31.40
2022-10-12T20:38:35.597Z,29.63
2022-10-12T20:41:04.612Z,32.20
2022-10-12T20:43:32.002Z,21.58
2022-10-12T20:46:02.696Z,33.00
2022-10-12T20:48:32.037Z,25.98
2022-10-12T20:50:59.622Z,33.65
2022-10-12T20:53:27.262Z,26.30
2022-10-12T20:55:54.676Z,22.08
2022-10-12T20:58:27.764Z,28.40
2022-10-12T21:01:02.904Z,27.77
2022-10-12T21:03:30.366Z,27.77
2022-10-12T21:05:57.792Z,28.33
2022-10-12T21:08:25.140Z,27.13
2022-10-12T21:10:52.500Z,21.80
2022-10-12T21:13:19.851Z,26.15
2022-10-12T21:15:51.828Z,29.30
2022-10-12T21:18:19.268Z,30.02
2022-10-12T21:20:53.671Z,27.48
2022-10-12T21:23:21.040Z,29.23
2022-10-12T21:25:48.438Z,26.77
2022-10-12T21:28:15.848Z,28.60
2022-10-12T21:30:43.337Z,30.38
2022-10-12T21:33:12.113Z,27.35
2022-10-12T21:35:39.496Z,27.30
2022-10-12T21:38:06.867Z,24.35
2022-10-12T21:40:34.473Z,33.47
2022-10-12T21:43:01.932Z,33.67
2022-10-12T21:45:29.308Z,28.15
2022-10-12T21:47:56.671Z,27.40
2022-10-12T21:50:25.478Z,28.58
2022-10-12T21:52:55.525Z,25.60
2022-10-12T21:55:26.853Z,27.05
2022-10-12T21:57:54.260Z,26.35
2022-10-12T22:00:21.750Z,25.13
2022-10-12T22:02:50.132Z,28.25
2022-10-12T22:05:17.487Z,25.33
2022-10-12T22:07:46.180Z,22.35
2022-10-12T22:10:13.598Z,27.27
2022-10-12T22:12:40.976Z,37.55
2022-10-12T22:15:08.996Z,31.42
2022-10-12T22:20:04.441Z,23.73
2022-10-12T22:22:31.888Z,31.55
2022-10-12T22:25:00.567Z,19.88
2022-10-12T22:27:32.237Z,25.15
2022-10-12T22:30:00.392Z,25.55
2022-10-12T22:32:27.869Z,27.65
2022-10-12T22:34:55.433Z,24.77
2022-10-12T22:37:22.840Z,22.27
2022-10-12T22:39:50.197Z,24.27
2022-10-12T22:42:19.159Z,21.23
2022-10-12T22:44:46.756Z,30.35
2022-10-12T22:47:14.143Z,23.52
2022-10-12T22:49:41.507Z,32.00
2022-10-12T22:52:08.931Z,24.80
2022-10-12T22:57:04.225Z,30.05
2022-10-12T22:59:33.508Z,25.15
2022-10-12T23:02:00.877Z,25.98
2022-10-12T23:04:29.453Z,27.95
2022-10-12T23:06:56.808Z,32.58
2022-10-12T23:09:27.312Z,27.23
2022-10-12T23:11:54.755Z,24.00
2022-10-12T23:14:22.119Z,28.05
2022-10-12T23:16:50.923Z,27.88
2022-10-12T23:19:18.574Z,23.50
2022-10-12T23:21:48.027Z,29.75
2022-10-12T23:24:15.415Z,27.15
2022-10-12T23:26:42.820Z,24.33
2022-10-12T23:29:10.256Z,28.75
2022-10-12T23:31:37.687Z,23.33
2022-10-12T23:34:07.154Z,31.83
2022-10-12T23:36:34.559Z,36.85
2022-10-12T23:39:02.222Z,31.77
2022-10-12T23:41:29.730Z,25.45
2022-10-12T23:43:57.102Z,26.50
2022-10-12T23:46:24.463Z,27.90
2022-10-12T23:48:52.125Z,36.03
2022-10-12T23:51:20.861Z,35.72
2022-10-12T23:53:48.280Z,34.45
2022-10-12T23:56:15.692Z,32.50
2022-10-12T23:58:43.059Z,37.67
